aviador You're here:

OIMN Decoded Metar

BOJNORD in IRAN
Report Time2018-01-16 07:00:00
UTC Time2018-01-16 07:22:53
Flight Rules vfr VFR
Wind270° at 04 kt
W.Decomp.*RWY 25: 3.8 kt HW 1.1 kt RCW
W.Rank270° ranks 4
Current wind is below 270° avg. (8.4)
Visibility9000 m
Phenomena:N/A
Clouds:Few 015 Hf
Scattered 035 Hf
Broken 070 Hf
Expected CloudBase > 800 ft AGL from Temp-Dew spread
Ceiling7,000 ft
Temp01°C (ISA -7)
Dew Point-1°C (87% RH)
AAT-2.6°C
QNH1023 hPa
Density Alt2,428 ft
Elevation3,524 ft
Report Wrong Elevation
Raw Report
METAR OIMN 160700Z 27004KT 9000 FEW015 SCT035 BKN070 01/M01 Q1023=

Extra information for OIMN:More info

Metar Taf Metar & Taf Last 4 Metars F.Rules Stats Wind Profile Meteogram Temp Stats Airport Information Weather charts Add Link Nearby VenuesMetar ALERT Operation Metar Decoded Social comments